sensor_id;sensor_type;location;lat;lon;timestamp;P1;durP1;ratioP1;P2;durP2;ratioP2
17494;SDS011;8864;51.970;4.614;2023-06-14T00:01:20;2.13;;;1.30;;
17494;SDS011;8864;51.970;4.614;2023-06-14T00:03:47;1.85;;;1.20;;
17494;SDS011;8864;51.970;4.614;2023-06-14T00:06:14;1.25;;;1.13;;
17494;SDS011;8864;51.970;4.614;2023-06-14T00:08:42;1.77;;;1.27;;
17494;SDS011;8864;51.970;4.614;2023-06-14T00:11:09;1.52;;;1.27;;
17494;SDS011;8864;51.970;4.614;2023-06-14T00:13:36;1.52;;;1.30;;
17494;SDS011;8864;51.970;4.614;2023-06-14T00:16:03;1.85;;;1.15;;
17494;SDS011;8864;51.970;4.614;2023-06-14T00:18:30;1.77;;;1.20;;
17494;SDS011;8864;51.970;4.614;2023-06-14T00:20:57;1.30;;;1.20;;
17494;SDS011;8864;51.970;4.614;2023-06-14T00:23:24;1.33;;;1.15;;
17494;SDS011;8864;51.970;4.614;2023-06-14T00:25:52;1.70;;;1.30;;
17494;SDS011;8864;51.970;4.614;2023-06-14T00:28:20;1.42;;;1.00;;
17494;SDS011;8864;51.970;4.614;2023-06-14T00:30:48;1.58;;;1.23;;
17494;SDS011;8864;51.970;4.614;2023-06-14T00:33:15;2.70;;;1.25;;
17494;SDS011;8864;51.970;4.614;2023-06-14T00:35:42;3.05;;;1.15;;
17494;SDS011;8864;51.970;4.614;2023-06-14T00:38:09;1.42;;;1.10;;
17494;SDS011;8864;51.970;4.614;2023-06-14T00:40:36;1.90;;;1.20;;
17494;SDS011;8864;51.970;4.614;2023-06-14T00:43:04;1.65;;;1.27;;
17494;SDS011;8864;51.970;4.614;2023-06-14T00:45:31;1.30;;;1.08;;
17494;SDS011;8864;51.970;4.614;2023-06-14T00:48:01;1.40;;;1.10;;
17494;SDS011;8864;51.970;4.614;2023-06-14T00:50:28;1.50;;;1.20;;
17494;SDS011;8864;51.970;4.614;2023-06-14T00:52:58;1.40;;;1.20;;
17494;SDS011;8864;51.970;4.614;2023-06-14T00:55:26;1.95;;;1.10;;
17494;SDS011;8864;51.970;4.614;2023-06-14T00:57:53;1.27;;;1.10;;
17494;SDS011;8864;51.970;4.614;2023-06-14T01:00:22;1.70;;;1.17;;
17494;SDS011;8864;51.970;4.614;2023-06-14T01:02:49;1.20;;;1.10;;
17494;SDS011;8864;51.970;4.614;2023-06-14T01:05:16;1.50;;;1.08;;
17494;SDS011;8864;51.970;4.614;2023-06-14T01:07:46;1.67;;;1.17;;
17494;SDS011;8864;51.970;4.614;2023-06-14T01:10:29;1.67;;;1.20;;
17494;SDS011;8864;51.970;4.614;2023-06-14T01:13:03;1.48;;;1.10;;
17494;SDS011;8864;51.970;4.614;2023-06-14T01:15:35;0.93;;;0.85;;
17494;SDS011;8864;51.970;4.614;2023-06-14T01:18:03;1.13;;;1.02;;
17494;SDS011;8864;51.970;4.614;2023-06-14T01:20:31;1.35;;;1.00;;
17494;SDS011;8864;51.970;4.614;2023-06-14T01:23:03;2.70;;;1.13;;
17494;SDS011;8864;51.970;4.614;2023-06-14T01:25:30;3.90;;;1.10;;
17494;SDS011;8864;51.970;4.614;2023-06-14T01:27:58;1.58;;;1.25;;
17494;SDS011;8864;51.970;4.614;2023-06-14T01:30:26;1.63;;;1.00;;
17494;SDS011;8864;51.970;4.614;2023-06-14T01:32:55;1.58;;;1.25;;
17494;SDS011;8864;51.970;4.614;2023-06-14T01:35:23;1.40;;;1.13;;
17494;SDS011;8864;51.970;4.614;2023-06-14T01:37:51;1.20;;;1.10;;
17494;SDS011;8864;51.970;4.614;2023-06-14T01:40:20;2.40;;;1.15;;
17494;SDS011;8864;51.970;4.614;2023-06-14T01:42:49;1.45;;;1.05;;
17494;SDS011;8864;51.970;4.614;2023-06-14T01:45:17;1.70;;;1.10;;
17494;SDS011;8864;51.970;4.614;2023-06-14T01:47:46;1.88;;;1.10;;
17494;SDS011;8864;51.970;4.614;2023-06-14T01:50:13;1.55;;;1.20;;
17494;SDS011;8864;51.970;4.614;2023-06-14T01:52:40;1.50;;;1.05;;
17494;SDS011;8864;51.970;4.614;2023-06-14T01:55:07;1.13;;;1.00;;
17494;SDS011;8864;51.970;4.614;2023-06-14T01:57:36;2.08;;;1.20;;
17494;SDS011;8864;51.970;4.614;2023-06-14T02:00:03;1.42;;;1.02;;
17494;SDS011;8864;51.970;4.614;2023-06-14T02:02:35;1.70;;;1.15;;
17494;SDS011;8864;51.970;4.614;2023-06-14T02:05:02;1.83;;;1.20;;
17494;SDS011;8864;51.970;4.614;2023-06-14T02:07:30;1.33;;;1.00;;
17494;SDS011;8864;51.970;4.614;2023-06-14T02:09:57;1.58;;;1.25;;
17494;SDS011;8864;51.970;4.614;2023-06-14T02:12:24;1.50;;;1.13;;
17494;SDS011;8864;51.970;4.614;2023-06-14T02:14:52;1.20;;;0.93;;
17494;SDS011;8864;51.970;4.614;2023-06-14T02:17:19;1.92;;;1.23;;
17494;SDS011;8864;51.970;4.614;2023-06-14T02:19:46;1.67;;;1.10;;
17494;SDS011;8864;51.970;4.614;2023-06-14T02:22:13;1.23;;;1.00;;
17494;SDS011;8864;51.970;4.614;2023-06-14T02:24:40;1.23;;;1.00;;
17494;SDS011;8864;51.970;4.614;2023-06-14T02:27:07;1.38;;;0.90;;
17494;SDS011;8864;51.970;4.614;2023-06-14T02:29:36;1.10;;;0.98;;
17494;SDS011;8864;51.970;4.614;2023-06-14T02:32:05;3.22;;;1.00;;
17494;SDS011;8864;51.970;4.614;2023-06-14T02:34:33;2.30;;;1.20;;
17494;SDS011;8864;51.970;4.614;2023-06-14T02:37:00;1.15;;;0.95;;
17494;SDS011;8864;51.970;4.614;2023-06-14T02:39:27;1.40;;;1.00;;
17494;SDS011;8864;51.970;4.614;2023-06-14T02:41:55;1.10;;;1.00;;
17494;SDS011;8864;51.970;4.614;2023-06-14T02:44:23;1.35;;;1.02;;
17494;SDS011;8864;51.970;4.614;2023-06-14T02:46:52;1.52;;;1.10;;
17494;SDS011;8864;51.970;4.614;2023-06-14T02:49:20;0.88;;;0.88;;
17494;SDS011;8864;51.970;4.614;2023-06-14T02:51:47;1.35;;;1.05;;
17494;SDS011;8864;51.970;4.614;2023-06-14T02:54:14;2.75;;;1.30;;
17494;SDS011;8864;51.970;4.614;2023-06-14T02:56:41;1.67;;;1.00;;
17494;SDS011;8864;51.970;4.614;2023-06-14T02:59:08;1.67;;;1.20;;
17494;SDS011;8864;51.970;4.614;2023-06-14T03:01:35;1.23;;;1.05;;
17494;SDS011;8864;51.970;4.614;2023-06-14T03:04:06;1.27;;;1.00;;
17494;SDS011;8864;51.970;4.614;2023-06-14T03:06:34;1.23;;;0.98;;
17494;SDS011;8864;51.970;4.614;2023-06-14T03:09:02;2.10;;;1.00;;
17494;SDS011;8864;51.970;4.614;2023-06-14T03:11:31;0.90;;;0.80;;
17494;SDS011;8864;51.970;4.614;2023-06-14T03:13:58;1.05;;;0.90;;
17494;SDS011;8864;51.970;4.614;2023-06-14T03:16:26;1.38;;;1.17;;
17494;SDS011;8864;51.970;4.614;2023-06-14T03:18:54;1.40;;;0.98;;
17494;SDS011;8864;51.970;4.614;2023-06-14T03:21:22;1.33;;;1.10;;
17494;SDS011;8864;51.970;4.614;2023-06-14T03:23:51;2.28;;;1.00;;
17494;SDS011;8864;51.970;4.614;2023-06-14T03:26:19;1.95;;;1.10;;
17494;SDS011;8864;51.970;4.614;2023-06-14T03:28:47;1.65;;;1.02;;
17494;SDS011;8864;51.970;4.614;2023-06-14T03:31:15;1.30;;;1.15;;
17494;SDS011;8864;51.970;4.614;2023-06-14T03:33:42;1.50;;;1.00;;
17494;SDS011;8864;51.970;4.614;2023-06-14T03:36:09;2.00;;;1.17;;
17494;SDS011;8864;51.970;4.614;2023-06-14T03:38:36;1.98;;;1.00;;
17494;SDS011;8864;51.970;4.614;2023-06-14T03:41:04;1.60;;;1.02;;
17494;SDS011;8864;51.970;4.614;2023-06-14T03:43:31;1.80;;;0.88;;
17494;SDS011;8864;51.970;4.614;2023-06-14T03:45:59;1.73;;;0.98;;
17494;SDS011;8864;51.970;4.614;2023-06-14T03:48:26;1.73;;;1.10;;
17494;SDS011;8864;51.970;4.614;2023-06-14T03:50:53;1.10;;;1.00;;
17494;SDS011;8864;51.970;4.614;2023-06-14T03:53:21;2.00;;;0.90;;
17494;SDS011;8864;51.970;4.614;2023-06-14T03:55:49;1.17;;;1.00;;
17494;SDS011;8864;51.970;4.614;2023-06-14T03:58:18;2.55;;;1.00;;
17494;SDS011;8864;51.970;4.614;2023-06-14T04:00:46;1.75;;;0.93;;
17494;SDS011;8864;51.970;4.614;2023-06-14T04:03:13;1.13;;;0.90;;
17494;SDS011;8864;51.970;4.614;2023-06-14T04:05:41;1.60;;;1.10;;
17494;SDS011;8864;51.970;4.614;2023-06-14T04:08:08;1.08;;;0.75;;
17494;SDS011;8864;51.970;4.614;2023-06-14T04:10:35;1.23;;;1.02;;
17494;SDS011;8864;51.970;4.614;2023-06-14T04:13:02;1.73;;;1.10;;
17494;SDS011;8864;51.970;4.614;2023-06-14T04:15:31;1.88;;;1.00;;
17494;SDS011;8864;51.970;4.614;2023-06-14T04:17:58;1.75;;;1.20;;
17494;SDS011;8864;51.970;4.614;2023-06-14T04:20:25;1.88;;;0.98;;
17494;SDS011;8864;51.970;4.614;2023-06-14T04:22:52;2.40;;;0.93;;
17494;SDS011;8864;51.970;4.614;2023-06-14T04:25:22;1.55;;;1.00;;
17494;SDS011;8864;51.970;4.614;2023-06-14T04:27:50;1.67;;;0.80;;
17494;SDS011;8864;51.970;4.614;2023-06-14T04:30:18;1.48;;;0.90;;
17494;SDS011;8864;51.970;4.614;2023-06-14T04:32:47;1.15;;;0.90;;
17494;SDS011;8864;51.970;4.614;2023-06-14T04:35:18;1.38;;;1.20;;
17494;SDS011;8864;51.970;4.614;2023-06-14T04:37:45;1.20;;;0.98;;
17494;SDS011;8864;51.970;4.614;2023-06-14T04:40:12;0.98;;;0.80;;
17494;SDS011;8864;51.970;4.614;2023-06-14T04:42:39;1.27;;;1.08;;
17494;SDS011;8864;51.970;4.614;2023-06-14T04:45:10;1.45;;;0.90;;
17494;SDS011;8864;51.970;4.614;2023-06-14T04:47:38;1.77;;;1.13;;
17494;SDS011;8864;51.970;4.614;2023-06-14T04:50:07;1.23;;;0.90;;
17494;SDS011;8864;51.970;4.614;2023-06-14T04:52:35;1.00;;;0.90;;
17494;SDS011;8864;51.970;4.614;2023-06-14T04:55:02;1.73;;;1.05;;
17494;SDS011;8864;51.970;4.614;2023-06-14T04:57:29;1.27;;;1.00;;
17494;SDS011;8864;51.970;4.614;2023-06-14T04:59:57;1.27;;;0.98;;
17494;SDS011;8864;51.970;4.614;2023-06-14T05:02:26;1.05;;;0.93;;
17494;SDS011;8864;51.970;4.614;2023-06-14T05:04:55;1.52;;;1.10;;
17494;SDS011;8864;51.970;4.614;2023-06-14T05:07:24;1.60;;;0.93;;
17494;SDS011;8864;51.970;4.614;2023-06-14T05:09:51;1.45;;;1.10;;
17494;SDS011;8864;51.970;4.614;2023-06-14T05:12:17;1.35;;;1.00;;
17494;SDS011;8864;51.970;4.614;2023-06-14T05:14:45;1.30;;;0.85;;
17494;SDS011;8864;51.970;4.614;2023-06-14T05:17:12;3.40;;;1.15;;
17494;SDS011;8864;51.970;4.614;2023-06-14T05:19:39;0.93;;;0.75;;
17494;SDS011;8864;51.970;4.614;2023-06-14T05:22:06;1.63;;;1.08;;
17494;SDS011;8864;51.970;4.614;2023-06-14T05:24:34;1.98;;;1.17;;
17494;SDS011;8864;51.970;4.614;2023-06-14T05:27:01;1.95;;;1.20;;
17494;SDS011;8864;51.970;4.614;2023-06-14T05:29:28;2.03;;;1.17;;
17494;SDS011;8864;51.970;4.614;2023-06-14T05:31:55;1.27;;;1.10;;
17494;SDS011;8864;51.970;4.614;2023-06-14T05:34:22;2.08;;;1.20;;
17494;SDS011;8864;51.970;4.614;2023-06-14T05:36:49;1.90;;;1.20;;
17494;SDS011;8864;51.970;4.614;2023-06-14T05:39:16;1.00;;;0.90;;
17494;SDS011;8864;51.970;4.614;2023-06-14T05:41:44;1.58;;;0.90;;
17494;SDS011;8864;51.970;4.614;2023-06-14T05:44:11;1.35;;;1.00;;
17494;SDS011;8864;51.970;4.614;2023-06-14T05:46:38;1.10;;;1.00;;
17494;SDS011;8864;51.970;4.614;2023-06-14T05:49:06;1.20;;;0.90;;
17494;SDS011;8864;51.970;4.614;2023-06-14T05:51:33;1.33;;;0.90;;
17494;SDS011;8864;51.970;4.614;2023-06-14T05:54:00;1.80;;;1.00;;
17494;SDS011;8864;51.970;4.614;2023-06-14T05:56:27;1.73;;;1.15;;
17494;SDS011;8864;51.970;4.614;2023-06-14T05:58:55;2.28;;;1.00;;
17494;SDS011;8864;51.970;4.614;2023-06-14T06:01:22;1.25;;;0.80;;
17494;SDS011;8864;51.970;4.614;2023-06-14T06:03:49;1.48;;;1.08;;
17494;SDS011;8864;51.970;4.614;2023-06-14T06:06:16;2.10;;;1.00;;
17494;SDS011;8864;51.970;4.614;2023-06-14T06:08:43;1.15;;;0.98;;
17494;SDS011;8864;51.970;4.614;2023-06-14T06:11:10;2.40;;;1.00;;
17494;SDS011;8864;51.970;4.614;2023-06-14T06:13:37;1.45;;;0.98;;
17494;SDS011;8864;51.970;4.614;2023-06-14T06:16:05;1.23;;;1.00;;
17494;SDS011;8864;51.970;4.614;2023-06-14T06:18:32;1.77;;;1.05;;
17494;SDS011;8864;51.970;4.614;2023-06-14T06:20:59;1.95;;;1.10;;
17494;SDS011;8864;51.970;4.614;2023-06-14T06:23:28;7.03;;;2.33;;
17494;SDS011;8864;51.970;4.614;2023-06-14T06:25:55;8.18;;;2.45;;
17494;SDS011;8864;51.970;4.614;2023-06-14T06:28:22;7.35;;;2.33;;
17494;SDS011;8864;51.970;4.614;2023-06-14T06:30:49;23.75;;;6.13;;
17494;SDS011;8864;51.970;4.614;2023-06-14T06:33:18;32.90;;;7.82;;
17494;SDS011;8864;51.970;4.614;2023-06-14T06:35:45;16.88;;;3.67;;
17494;SDS011;8864;51.970;4.614;2023-06-14T06:38:11;19.42;;;4.28;;
17494;SDS011;8864;51.970;4.614;2023-06-14T06:40:38;13.80;;;3.15;;
17494;SDS011;8864;51.970;4.614;2023-06-14T06:43:05;35.70;;;7.93;;
17494;SDS011;8864;51.970;4.614;2023-06-14T06:45:32;30.15;;;5.53;;
17494;SDS011;8864;51.970;4.614;2023-06-14T06:47:59;35.42;;;6.80;;
17494;SDS011;8864;51.970;4.614;2023-06-14T06:50:28;16.17;;;4.10;;
17494;SDS011;8864;51.970;4.614;2023-06-14T06:52:55;15.23;;;4.07;;
17494;SDS011;8864;51.970;4.614;2023-06-14T06:55:23;8.48;;;2.90;;
17494;SDS011;8864;51.970;4.614;2023-06-14T06:57:50;12.68;;;2.85;;
17494;SDS011;8864;51.970;4.614;2023-06-14T07:00:19;11.90;;;2.83;;
17494;SDS011;8864;51.970;4.614;2023-06-14T07:02:46;9.20;;;2.35;;
17494;SDS011;8864;51.970;4.614;2023-06-14T07:05:13;7.35;;;2.65;;
17494;SDS011;8864;51.970;4.614;2023-06-14T07:07:41;12.55;;;2.42;;
17494;SDS011;8864;51.970;4.614;2023-06-14T07:10:08;7.05;;;2.22;;
17494;SDS011;8864;51.970;4.614;2023-06-14T07:12:35;9.15;;;2.50;;
17494;SDS011;8864;51.970;4.614;2023-06-14T07:15:05;5.43;;;2.05;;
17494;SDS011;8864;51.970;4.614;2023-06-14T07:17:33;9.73;;;2.40;;
17494;SDS011;8864;51.970;4.614;2023-06-14T07:20:00;6.60;;;2.42;;
17494;SDS011;8864;51.970;4.614;2023-06-14T07:22:37;6.57;;;2.00;;
17494;SDS011;8864;51.970;4.614;2023-06-14T07:25:08;6.10;;;2.30;;
17494;SDS011;8864;51.970;4.614;2023-06-14T07:27:37;7.57;;;2.20;;
17494;SDS011;8864;51.970;4.614;2023-06-14T07:30:05;4.95;;;2.35;;
17494;SDS011;8864;51.970;4.614;2023-06-14T07:32:33;4.88;;;2.03;;
17494;SDS011;8864;51.970;4.614;2023-06-14T07:35:00;10.25;;;2.10;;
17494;SDS011;8864;51.970;4.614;2023-06-14T07:37:28;9.80;;;2.92;;
17494;SDS011;8864;51.970;4.614;2023-06-14T07:39:55;16.55;;;3.13;;
17494;SDS011;8864;51.970;4.614;2023-06-14T07:42:24;22.27;;;3.45;;
17494;SDS011;8864;51.970;4.614;2023-06-14T07:44:51;22.27;;;3.50;;
17494;SDS011;8864;51.970;4.614;2023-06-14T07:47:19;21.17;;;3.65;;
17494;SDS011;8864;51.970;4.614;2023-06-14T07:49:45;20.42;;;3.20;;
17494;SDS011;8864;51.970;4.614;2023-06-14T07:52:12;21.85;;;3.30;;
17494;SDS011;8864;51.970;4.614;2023-06-14T07:54:39;16.65;;;3.47;;
17494;SDS011;8864;51.970;4.614;2023-06-14T07:57:06;19.52;;;3.38;;
17494;SDS011;8864;51.970;4.614;2023-06-14T07:59:35;11.32;;;2.90;;
17494;SDS011;8864;51.970;4.614;2023-06-14T08:02:02;11.32;;;3.00;;
17494;SDS011;8864;51.970;4.614;2023-06-14T08:04:29;13.43;;;3.25;;
17494;SDS011;8864;51.970;4.614;2023-06-14T08:06:57;19.20;;;4.05;;
17494;SDS011;8864;51.970;4.614;2023-06-14T08:09:24;30.38;;;5.15;;
17494;SDS011;8864;51.970;4.614;2023-06-14T08:11:53;23.80;;;4.53;;
17494;SDS011;8864;51.970;4.614;2023-06-14T08:14:20;30.77;;;5.65;;
17494;SDS011;8864;51.970;4.614;2023-06-14T08:16:48;31.50;;;4.88;;
17494;SDS011;8864;51.970;4.614;2023-06-14T08:19:15;21.02;;;4.10;;
17494;SDS011;8864;51.970;4.614;2023-06-14T08:21:43;20.80;;;4.05;;
17494;SDS011;8864;51.970;4.614;2023-06-14T08:24:11;27.85;;;4.82;;
17494;SDS011;8864;51.970;4.614;2023-06-14T08:26:38;29.63;;;4.63;;
17494;SDS011;8864;51.970;4.614;2023-06-14T08:29:06;25.50;;;4.20;;
17494;SDS011;8864;51.970;4.614;2023-06-14T08:31:33;19.80;;;3.80;;
17494;SDS011;8864;51.970;4.614;2023-06-14T08:34:01;17.25;;;3.60;;
17494;SDS011;8864;51.970;4.614;2023-06-14T08:36:28;21.95;;;3.85;;
17494;SDS011;8864;51.970;4.614;2023-06-14T08:38:55;24.23;;;3.55;;
17494;SDS011;8864;51.970;4.614;2023-06-14T08:41:22;19.90;;;3.45;;
17494;SDS011;8864;51.970;4.614;2023-06-14T08:43:50;14.98;;;3.53;;
17494;SDS011;8864;51.970;4.614;2023-06-14T08:46:17;15.00;;;3.58;;
17494;SDS011;8864;51.970;4.614;2023-06-14T08:48:47;16.50;;;3.60;;
17494;SDS011;8864;51.970;4.614;2023-06-14T08:51:18;16.25;;;3.40;;
17494;SDS011;8864;51.970;4.614;2023-06-14T08:53:47;22.50;;;4.47;;
17494;SDS011;8864;51.970;4.614;2023-06-14T08:56:19;22.55;;;3.83;;
17494;SDS011;8864;51.970;4.614;2023-06-14T08:58:47;13.32;;;3.53;;
17494;SDS011;8864;51.970;4.614;2023-06-14T09:01:15;9.98;;;2.80;;
17494;SDS011;8864;51.970;4.614;2023-06-14T09:03:42;13.25;;;3.08;;
17494;SDS011;8864;51.970;4.614;2023-06-14T09:06:10;9.85;;;2.88;;
17494;SDS011;8864;51.970;4.614;2023-06-14T09:08:42;9.20;;;2.60;;
17494;SDS011;8864;51.970;4.614;2023-06-14T09:11:10;8.65;;;2.72;;
17494;SDS011;8864;51.970;4.614;2023-06-14T09:13:38;11.50;;;2.72;;
17494;SDS011;8864;51.970;4.614;2023-06-14T09:16:05;11.85;;;2.80;;
17494;SDS011;8864;51.970;4.614;2023-06-14T09:18:35;6.65;;;2.65;;
17494;SDS011;8864;51.970;4.614;2023-06-14T09:21:05;12.02;;;2.80;;
17494;SDS011;8864;51.970;4.614;2023-06-14T09:23:33;12.63;;;2.75;;
17494;SDS011;8864;51.970;4.614;2023-06-14T09:26:07;10.60;;;3.33;;
17494;SDS011;8864;51.970;4.614;2023-06-14T09:28:35;9.68;;;2.58;;
17494;SDS011;8864;51.970;4.614;2023-06-14T09:31:02;8.77;;;2.58;;
17494;SDS011;8864;51.970;4.614;2023-06-14T09:33:30;10.23;;;2.40;;
17494;SDS011;8864;51.970;4.614;2023-06-14T09:35:58;11.77;;;2.40;;
17494;SDS011;8864;51.970;4.614;2023-06-14T09:38:25;10.93;;;2.72;;
17494;SDS011;8864;51.970;4.614;2023-06-14T09:40:52;7.32;;;2.55;;
17494;SDS011;8864;51.970;4.614;2023-06-14T09:43:24;9.00;;;2.42;;
17494;SDS011;8864;51.970;4.614;2023-06-14T09:45:52;8.48;;;2.72;;
17494;SDS011;8864;51.970;4.614;2023-06-14T09:48:20;9.85;;;2.65;;
17494;SDS011;8864;51.970;4.614;2023-06-14T09:50:47;5.85;;;2.33;;
17494;SDS011;8864;51.970;4.614;2023-06-14T09:53:16;9.38;;;1.90;;
17494;SDS011;8864;51.970;4.614;2023-06-14T09:55:48;7.35;;;2.50;;
17494;SDS011;8864;51.970;4.614;2023-06-14T09:58:17;6.18;;;2.47;;
17494;SDS011;8864;51.970;4.614;2023-06-14T10:00:47;9.25;;;2.08;;
17494;SDS011;8864;51.970;4.614;2023-06-14T10:03:19;10.30;;;2.58;;
17494;SDS011;8864;51.970;4.614;2023-06-14T10:05:50;8.70;;;2.17;;
17494;SDS011;8864;51.970;4.614;2023-06-14T10:08:18;4.10;;;2.05;;
17494;SDS011;8864;51.970;4.614;2023-06-14T10:10:46;6.95;;;2.08;;
17494;SDS011;8864;51.970;4.614;2023-06-14T10:13:13;6.93;;;2.40;;
17494;SDS011;8864;51.970;4.614;2023-06-14T10:15:42;5.60;;;2.00;;
17494;SDS011;8864;51.970;4.614;2023-06-14T10:18:19;7.05;;;1.88;;
17494;SDS011;8864;51.970;4.614;2023-06-14T10:20:55;6.72;;;2.40;;
17494;SDS011;8864;51.970;4.614;2023-06-14T10:23:30;4.75;;;2.05;;
17494;SDS011;8864;51.970;4.614;2023-06-14T10:26:01;5.43;;;2.05;;
17494;SDS011;8864;51.970;4.614;2023-06-14T10:28:28;5.20;;;1.77;;
17494;SDS011;8864;51.970;4.614;2023-06-14T10:31:08;3.20;;;1.70;;
17494;SDS011;8864;51.970;4.614;2023-06-14T10:33:36;5.32;;;1.65;;
17494;SDS011;8864;51.970;4.614;2023-06-14T10:38:59;2.97;;;1.58;;
17494;SDS011;8864;51.970;4.614;2023-06-14T10:41:31;3.53;;;1.65;;
17494;SDS011;8864;51.970;4.614;2023-06-14T10:47:19;4.07;;;1.80;;
17494;SDS011;8864;51.970;4.614;2023-06-14T10:49:52;6.43;;;1.75;;
17494;SDS011;8864;51.970;4.614;2023-06-14T10:52:21;7.15;;;1.92;;
17494;SDS011;8864;51.970;4.614;2023-06-14T10:55:07;4.18;;;1.73;;
17494;SDS011;8864;51.970;4.614;2023-06-14T10:57:37;4.38;;;1.77;;
17494;SDS011;8864;51.970;4.614;2023-06-14T11:00:05;9.30;;;1.52;;
17494;SDS011;8864;51.970;4.614;2023-06-14T11:02:48;2.72;;;1.35;;
17494;SDS011;8864;51.970;4.614;2023-06-14T11:05:41;4.95;;;1.70;;
17494;SDS011;8864;51.970;4.614;2023-06-14T11:08:27;5.68;;;1.88;;
17494;SDS011;8864;51.970;4.614;2023-06-14T11:11:24;5.85;;;1.98;;
17494;SDS011;8864;51.970;4.614;2023-06-14T11:13:57;3.85;;;1.75;;
17494;SDS011;8864;51.970;4.614;2023-06-14T11:16:26;2.80;;;1.40;;
17494;SDS011;8864;51.970;4.614;2023-06-14T11:18:55;4.35;;;1.58;;
17494;SDS011;8864;51.970;4.614;2023-06-14T11:21:23;3.38;;;1.52;;
17494;SDS011;8864;51.970;4.614;2023-06-14T11:23:56;5.95;;;1.38;;
17494;SDS011;8864;51.970;4.614;2023-06-14T11:26:26;3.75;;;1.55;;
17494;SDS011;8864;51.970;4.614;2023-06-14T11:28:57;4.35;;;1.63;;
17494;SDS011;8864;51.970;4.614;2023-06-14T11:31:24;2.83;;;1.48;;
17494;SDS011;8864;51.970;4.614;2023-06-14T11:33:53;5.10;;;1.90;;
17494;SDS011;8864;51.970;4.614;2023-06-14T11:36:22;3.38;;;1.30;;
17494;SDS011;8864;51.970;4.614;2023-06-14T11:38:49;3.15;;;1.33;;
17494;SDS011;8864;51.970;4.614;2023-06-14T11:41:17;2.63;;;1.60;;
17494;SDS011;8864;51.970;4.614;2023-06-14T11:43:43;3.83;;;1.35;;
17494;SDS011;8864;51.970;4.614;2023-06-14T11:46:14;3.22;;;1.42;;
17494;SDS011;8864;51.970;4.614;2023-06-14T11:48:42;2.58;;;1.20;;
17494;SDS011;8864;51.970;4.614;2023-06-14T11:51:10;3.05;;;1.33;;
17494;SDS011;8864;51.970;4.614;2023-06-14T11:53:38;3.95;;;1.67;;
17494;SDS011;8864;51.970;4.614;2023-06-14T11:56:05;2.00;;;1.20;;
17494;SDS011;8864;51.970;4.614;2023-06-14T11:58:33;3.63;;;1.48;;
17494;SDS011;8864;51.970;4.614;2023-06-14T12:01:00;3.70;;;1.58;;
17494;SDS011;8864;51.970;4.614;2023-06-14T12:03:29;2.78;;;1.40;;
17494;SDS011;8864;51.970;4.614;2023-06-14T12:06:03;4.97;;;1.30;;
17494;SDS011;8864;51.970;4.614;2023-06-14T12:08:32;4.13;;;1.55;;
17494;SDS011;8864;51.970;4.614;2023-06-14T12:11:05;2.38;;;1.42;;
17494;SDS011;8864;51.970;4.614;2023-06-14T12:13:33;2.83;;;1.33;;
17494;SDS011;8864;51.970;4.614;2023-06-14T12:16:03;2.13;;;1.25;;
17494;SDS011;8864;51.970;4.614;2023-06-14T12:18:34;2.13;;;1.10;;
17494;SDS011;8864;51.970;4.614;2023-06-14T12:21:02;3.70;;;1.35;;
17494;SDS011;8864;51.970;4.614;2023-06-14T12:23:44;2.92;;;1.20;;
17494;SDS011;8864;51.970;4.614;2023-06-14T12:26:14;2.20;;;1.00;;
17494;SDS011;8864;51.970;4.614;2023-06-14T12:28:42;2.85;;;1.33;;
17494;SDS011;8864;51.970;4.614;2023-06-14T12:31:11;2.40;;;1.30;;
17494;SDS011;8864;51.970;4.614;2023-06-14T12:33:38;2.67;;;1.25;;
17494;SDS011;8864;51.970;4.614;2023-06-14T12:36:06;3.30;;;1.08;;
17494;SDS011;8864;51.970;4.614;2023-06-14T12:38:35;2.55;;;1.40;;
17494;SDS011;8864;51.970;4.614;2023-06-14T12:41:02;1.70;;;1.17;;
17494;SDS011;8864;51.970;4.614;2023-06-14T12:43:30;3.25;;;1.17;;
17494;SDS011;8864;51.970;4.614;2023-06-14T12:45:57;1.58;;;1.10;;
17494;SDS011;8864;51.970;4.614;2023-06-14T12:48:24;3.15;;;1.40;;
17494;SDS011;8864;51.970;4.614;2023-06-14T12:50:52;4.53;;;1.20;;
17494;SDS011;8864;51.970;4.614;2023-06-14T12:53:19;5.18;;;1.20;;
17494;SDS011;8864;51.970;4.614;2023-06-14T12:55:46;2.55;;;1.30;;
17494;SDS011;8864;51.970;4.614;2023-06-14T12:58:13;1.65;;;1.20;;
17494;SDS011;8864;51.970;4.614;2023-06-14T13:00:43;3.97;;;1.20;;
17494;SDS011;8864;51.970;4.614;2023-06-14T13:03:10;2.53;;;1.38;;
17494;SDS011;8864;51.970;4.614;2023-06-14T13:05:37;4.43;;;1.13;;
17494;SDS011;8864;51.970;4.614;2023-06-14T13:08:06;1.98;;;1.30;;
17494;SDS011;8864;51.970;4.614;2023-06-14T13:10:34;1.75;;;1.20;;
17494;SDS011;8864;51.970;4.614;2023-06-14T13:13:01;2.17;;;1.20;;
17494;SDS011;8864;51.970;4.614;2023-06-14T13:15:29;4.65;;;1.10;;
17494;SDS011;8864;51.970;4.614;2023-06-14T13:17:57;1.80;;;1.20;;
17494;SDS011;8864;51.970;4.614;2023-06-14T13:20:24;5.80;;;1.27;;
17494;SDS011;8864;51.970;4.614;2023-06-14T13:22:51;4.20;;;1.35;;
17494;SDS011;8864;51.970;4.614;2023-06-14T13:25:18;4.00;;;1.48;;
17494;SDS011;8864;51.970;4.614;2023-06-14T13:27:45;6.20;;;1.50;;
17494;SDS011;8864;51.970;4.614;2023-06-14T13:30:12;5.13;;;1.80;;
17494;SDS011;8864;51.970;4.614;2023-06-14T13:32:39;3.80;;;1.25;;
17494;SDS011;8864;51.970;4.614;2023-06-14T13:35:08;8.05;;;1.48;;
17494;SDS011;8864;51.970;4.614;2023-06-14T13:37:35;7.47;;;1.77;;
17494;SDS011;8864;51.970;4.614;2023-06-14T13:40:02;11.98;;;2.45;;
17494;SDS011;8864;51.970;4.614;2023-06-14T13:42:29;3.97;;;1.50;;
17494;SDS011;8864;51.970;4.614;2023-06-14T13:44:57;11.35;;;1.65;;
17494;SDS011;8864;51.970;4.614;2023-06-14T13:47:24;5.70;;;1.80;;
17494;SDS011;8864;51.970;4.614;2023-06-14T13:49:51;6.72;;;1.77;;
17494;SDS011;8864;51.970;4.614;2023-06-14T13:52:19;8.82;;;1.45;;
17494;SDS011;8864;51.970;4.614;2023-06-14T13:54:46;12.15;;;1.42;;
17494;SDS011;8864;51.970;4.614;2023-06-14T13:57:13;3.00;;;1.50;;
17494;SDS011;8864;51.970;4.614;2023-06-14T13:59:40;4.53;;;1.45;;
17494;SDS011;8864;51.970;4.614;2023-06-14T14:02:09;4.40;;;1.50;;
17494;SDS011;8864;51.970;4.614;2023-06-14T14:04:36;4.72;;;1.38;;
17494;SDS011;8864;51.970;4.614;2023-06-14T14:07:05;2.17;;;1.27;;
17494;SDS011;8864;51.970;4.614;2023-06-14T14:09:34;4.18;;;1.30;;
17494;SDS011;8864;51.970;4.614;2023-06-14T14:12:02;6.35;;;1.45;;
17494;SDS011;8864;51.970;4.614;2023-06-14T14:14:30;3.30;;;1.40;;
17494;SDS011;8864;51.970;4.614;2023-06-14T14:16:58;3.88;;;1.10;;
17494;SDS011;8864;51.970;4.614;2023-06-14T14:19:25;2.40;;;1.23;;
17494;SDS011;8864;51.970;4.614;2023-06-14T14:21:52;3.10;;;1.35;;
17494;SDS011;8864;51.970;4.614;2023-06-14T14:24:19;3.38;;;1.30;;
17494;SDS011;8864;51.970;4.614;2023-06-14T14:26:48;1.65;;;1.00;;
17494;SDS011;8864;51.970;4.614;2023-06-14T14:29:15;2.60;;;1.10;;
17494;SDS011;8864;51.970;4.614;2023-06-14T14:31:42;3.10;;;1.20;;
17494;SDS011;8864;51.970;4.614;2023-06-14T14:34:09;3.15;;;1.10;;
17494;SDS011;8864;51.970;4.614;2023-06-14T14:36:36;4.80;;;1.40;;
17494;SDS011;8864;51.970;4.614;2023-06-14T14:39:07;3.53;;;1.10;;
17494;SDS011;8864;51.970;4.614;2023-06-14T14:41:34;3.13;;;1.20;;
17494;SDS011;8864;51.970;4.614;2023-06-14T14:44:04;2.78;;;1.20;;
17494;SDS011;8864;51.970;4.614;2023-06-14T14:46:31;2.45;;;1.27;;
17494;SDS011;8864;51.970;4.614;2023-06-14T14:48:58;1.77;;;1.30;;
17494;SDS011;8864;51.970;4.614;2023-06-14T14:51:25;2.70;;;1.00;;
17494;SDS011;8864;51.970;4.614;2023-06-14T14:53:52;2.08;;;1.15;;
17494;SDS011;8864;51.970;4.614;2023-06-14T14:56:19;1.90;;;1.10;;
17494;SDS011;8864;51.970;4.614;2023-06-14T14:58:47;1.20;;;0.82;;
17494;SDS011;8864;51.970;4.614;2023-06-14T15:01:16;1.63;;;1.00;;
17494;SDS011;8864;51.970;4.614;2023-06-14T15:03:43;2.83;;;0.90;;
17494;SDS011;8864;51.970;4.614;2023-06-14T15:06:10;3.15;;;0.98;;
17494;SDS011;8864;51.970;4.614;2023-06-14T15:08:37;2.20;;;0.95;;
17494;SDS011;8864;51.970;4.614;2023-06-14T15:11:04;3.13;;;1.02;;
17494;SDS011;8864;51.970;4.614;2023-06-14T15:13:31;2.13;;;1.00;;